createdAt,value
2017-07-31T00:02:22.230Z,18.65
2017-07-31T00:04:50.554Z,18.69
2017-07-31T00:07:18.879Z,18.68
2017-07-31T00:09:47.232Z,18.43
2017-07-31T00:12:15.574Z,18.56
2017-07-31T00:14:44.181Z,18.48
2017-07-31T00:17:12.500Z,18.37
2017-07-31T00:19:40.816Z,18.32
2017-07-31T00:22:09.168Z,18.21
2017-07-31T00:24:37.507Z,18.32
2017-07-31T00:27:06.128Z,18.31
2017-07-31T00:29:34.457Z,18.44
2017-07-31T00:32:02.857Z,18.55
2017-07-31T00:34:31.214Z,18.49
2017-07-31T00:36:59.555Z,18.51
2017-07-31T00:39:28.222Z,18.44
2017-07-31T00:41:56.559Z,18.51
2017-07-31T00:44:24.916Z,18.49
2017-07-31T00:46:53.282Z,18.58
2017-07-31T00:49:21.619Z,18.28
2017-07-31T00:51:50.755Z,18.32
2017-07-31T00:54:19.522Z,18.53
2017-07-31T00:56:48.590Z,18.51
2017-07-31T00:59:17.526Z,18.53
2017-07-31T01:01:46.898Z,18.52
2017-07-31T01:04:15.516Z,18.56
2017-07-31T01:06:44.296Z,18.43
2017-07-31T01:09:13.384Z,18.45
2017-07-31T01:11:41.749Z,18.45
2017-07-31T01:14:10.090Z,18.49
2017-07-31T01:16:38.426Z,18.35
2017-07-31T01:19:07.530Z,18.49
2017-07-31T01:21:35.893Z,18.51
2017-07-31T01:24:04.263Z,18.46
2017-07-31T01:26:32.583Z,18.48
2017-07-31T01:29:00.919Z,18.32
2017-07-31T01:31:29.227Z,18.21
2017-07-31T01:33:57.743Z,18.31
2017-07-31T01:36:26.067Z,18.27
2017-07-31T01:38:54.404Z,18.25
2017-07-31T01:41:23.160Z,18.23
2017-07-31T01:43:51.978Z,18.31
2017-07-31T01:46:20.298Z,18.26
2017-07-31T01:48:48.638Z,18.21
2017-07-31T01:51:17.026Z,18.18
2017-07-31T01:53:45.395Z,18.21
2017-07-31T01:56:13.758Z,18.25
2017-07-31T01:58:42.126Z,18.15
2017-07-31T02:01:12.623Z,18.03
2017-07-31T02:03:41.063Z,18.00
2017-07-31T02:06:09.417Z,17.82
2017-07-31T02:08:37.763Z,17.97
2017-07-31T02:11:06.099Z,18.11
2017-07-31T02:13:34.444Z,17.93
2017-07-31T02:16:02.841Z,17.86
2017-07-31T02:18:31.189Z,17.88
2017-07-31T02:20:59.526Z,17.99
2017-07-31T02:23:28.143Z,17.98
2017-07-31T02:25:56.486Z,18.03
2017-07-31T02:28:24.821Z,17.87
2017-07-31T02:30:53.180Z,17.73
2017-07-31T02:33:21.509Z,17.75
2017-07-31T02:35:49.875Z,17.77
2017-07-31T02:38:18.209Z,17.87
2017-07-31T02:40:46.814Z,17.71
2017-07-31T02:43:15.137Z,17.63
2017-07-31T02:45:43.469Z,17.62
2017-07-31T02:48:11.808Z,17.68
2017-07-31T02:50:40.126Z,17.78
2017-07-31T02:53:08.467Z,17.80
2017-07-31T02:55:36.786Z,17.71
2017-07-31T02:58:05.201Z,17.74
2017-07-31T03:00:33.649Z,17.79
2017-07-31T03:03:01.972Z,17.76
2017-07-31T03:05:30.322Z,17.61
2017-07-31T03:07:58.658Z,17.51
2017-07-31T03:10:26.985Z,17.53
2017-07-31T03:12:55.316Z,17.65
2017-07-31T03:15:23.939Z,17.75
2017-07-31T03:17:52.280Z,17.60
2017-07-31T03:20:20.613Z,17.75
2017-07-31T03:22:48.957Z,17.70
2017-07-31T03:25:17.287Z,17.71
2017-07-31T03:27:45.625Z,17.61
2017-07-31T03:30:13.961Z,17.71
2017-07-31T03:32:42.591Z,17.49
2017-07-31T03:35:10.912Z,17.54
2017-07-31T03:37:39.237Z,17.50
2017-07-31T03:40:07.595Z,17.54
2017-07-31T03:42:35.902Z,17.46
2017-07-31T03:45:04.289Z,17.45
2017-07-31T03:47:32.630Z,17.52
2017-07-31T03:50:00.957Z,17.53
2017-07-31T03:52:29.305Z,17.51
2017-07-31T03:54:57.656Z,17.44
2017-07-31T03:57:26.029Z,17.49
2017-07-31T03:59:54.351Z,17.44
2017-07-31T04:02:22.698Z,17.40
2017-07-31T04:04:51.019Z,17.37
2017-07-31T04:07:19.361Z,17.37
2017-07-31T04:09:47.694Z,17.46
2017-07-31T04:12:16.026Z,17.53
2017-07-31T04:14:44.362Z,17.42
2017-07-31T04:17:12.721Z,17.41
2017-07-31T04:19:41.069Z,17.43
2017-07-31T04:22:09.410Z,17.39
2017-07-31T04:24:37.754Z,17.39
2017-07-31T04:27:06.068Z,17.33
2017-07-31T04:29:34.404Z,17.14
2017-07-31T04:32:02.749Z,17.24
2017-07-31T04:34:31.189Z,17.11
2017-07-31T04:36:59.512Z,17.18
2017-07-31T04:39:27.850Z,17.18
2017-07-31T04:41:56.200Z,17.01
2017-07-31T04:44:24.537Z,16.98
2017-07-31T04:46:52.889Z,17.04
2017-07-31T04:49:21.219Z,17.07
2017-07-31T04:51:49.580Z,17.11
2017-07-31T04:54:17.898Z,17.09
2017-07-31T04:56:46.503Z,17.18
2017-07-31T04:59:14.820Z,17.30
2017-07-31T05:01:43.137Z,17.27
2017-07-31T05:04:11.477Z,17.22
2017-07-31T05:06:39.990Z,17.28
2017-07-31T05:09:08.344Z,17.40
2017-07-31T05:11:36.686Z,17.36
2017-07-31T05:14:05.019Z,17.45
2017-07-31T05:16:33.359Z,17.43
2017-07-31T05:19:01.727Z,17.48
2017-07-31T05:21:31.047Z,17.28
2017-07-31T05:23:59.390Z,17.44
2017-07-31T05:26:27.717Z,17.38
2017-07-31T05:28:56.064Z,17.40
2017-07-31T05:31:25.106Z,17.44
2017-07-31T05:33:53.424Z,17.49
2017-07-31T05:36:21.758Z,17.47
2017-07-31T05:38:50.094Z,17.49
2017-07-31T05:41:19.213Z,17.54
2017-07-31T05:43:47.530Z,17.59
2017-07-31T05:46:16.252Z,17.60
2017-07-31T05:48:44.594Z,17.79
2017-07-31T05:51:12.965Z,17.93
2017-07-31T05:53:41.406Z,18.05
2017-07-31T05:56:09.748Z,18.07
2017-07-31T05:58:38.091Z,18.20
2017-07-31T06:01:06.411Z,18.21
2017-07-31T06:03:34.748Z,18.30
2017-07-31T06:06:03.080Z,18.27
2017-07-31T06:08:31.451Z,18.27
2017-07-31T06:10:59.810Z,18.43
2017-07-31T06:13:28.138Z,18.53
2017-07-31T06:15:56.491Z,18.56
2017-07-31T06:18:24.823Z,18.59
2017-07-31T06:20:53.180Z,18.72
2017-07-31T06:23:22.293Z,18.69
2017-07-31T06:25:50.661Z,18.67
2017-07-31T06:28:19.003Z,18.78
2017-07-31T06:30:47.353Z,18.85
2017-07-31T06:33:15.677Z,18.93
2017-07-31T06:35:44.411Z,19.05
2017-07-31T06:38:12.761Z,19.12
2017-07-31T06:40:41.887Z,19.15
2017-07-31T06:43:10.232Z,19.23
2017-07-31T06:45:38.546Z,19.31
2017-07-31T06:48:06.927Z,19.36
2017-07-31T06:50:35.253Z,19.31
2017-07-31T06:53:03.621Z,19.38
2017-07-31T06:55:31.960Z,19.47
2017-07-31T06:58:00.316Z,19.59
2017-07-31T07:00:28.649Z,19.63
2017-07-31T07:02:56.995Z,19.75
2017-07-31T07:05:25.329Z,19.86
2017-07-31T07:07:53.683Z,20.01
2017-07-31T07:10:22.016Z,20.13
2017-07-31T07:12:50.356Z,20.28
2017-07-31T07:15:18.698Z,20.40
2017-07-31T07:17:47.022Z,20.45
2017-07-31T07:20:15.369Z,20.54
2017-07-31T07:22:43.734Z,20.60
2017-07-31T07:25:12.067Z,20.72
2017-07-31T07:27:40.396Z,20.76
2017-07-31T07:30:09.153Z,20.80
2017-07-31T07:32:37.493Z,20.85
2017-07-31T07:35:05.884Z,20.90
2017-07-31T07:37:34.220Z,20.92
2017-07-31T07:40:02.538Z,21.01
2017-07-31T07:42:30.888Z,21.06
2017-07-31T07:44:59.208Z,21.12
2017-07-31T07:47:27.556Z,21.22
2017-07-31T07:49:55.867Z,21.31
2017-07-31T07:52:24.198Z,21.38
2017-07-31T07:54:52.541Z,21.39
2017-07-31T07:57:20.955Z,21.38
2017-07-31T07:59:49.301Z,21.45
2017-07-31T08:02:18.438Z,21.50
2017-07-31T08:04:46.805Z,21.60
2017-07-31T08:07:15.129Z,21.65
2017-07-31T08:09:43.497Z,21.65
2017-07-31T08:12:11.832Z,21.72
2017-07-31T08:14:40.193Z,21.79
2017-07-31T08:17:09.285Z,21.83
2017-07-31T08:19:37.969Z,21.83
2017-07-31T08:22:06.292Z,21.88
2017-07-31T08:24:34.622Z,21.94
2017-07-31T08:27:03.721Z,22.03
2017-07-31T08:29:32.052Z,22.10
2017-07-31T08:32:00.415Z,22.17
2017-07-31T08:34:28.777Z,22.23
2017-07-31T08:36:57.114Z,22.26
2017-07-31T08:39:25.479Z,22.34
2017-07-31T08:41:53.814Z,22.36
2017-07-31T08:44:22.185Z,22.45
2017-07-31T08:46:50.543Z,22.46
2017-07-31T08:49:18.907Z,22.42
2017-07-31T08:51:47.290Z,22.46
2017-07-31T08:54:15.616Z,22.50
2017-07-31T08:56:43.960Z,22.47
2017-07-31T08:59:12.284Z,22.48
2017-07-31T09:01:40.645Z,22.65
2017-07-31T09:04:09.736Z,22.63
2017-07-31T09:06:38.079Z,22.70
2017-07-31T09:09:06.433Z,22.76
2017-07-31T09:11:34.769Z,22.85
2017-07-31T09:14:03.877Z,22.88
2017-07-31T09:16:32.212Z,22.91
2017-07-31T09:19:00.571Z,23.01
2017-07-31T09:21:28.908Z,23.09
2017-07-31T09:23:58.040Z,23.18
2017-07-31T09:26:26.696Z,23.33
2017-07-31T09:28:55.033Z,23.41
2017-07-31T09:31:23.375Z,23.49
2017-07-31T09:33:51.734Z,23.57
2017-07-31T09:36:20.851Z,23.62
2017-07-31T09:38:49.179Z,23.63
2017-07-31T09:41:17.904Z,23.66
2017-07-31T09:43:46.218Z,23.68
2017-07-31T09:46:14.558Z,23.72
2017-07-31T09:48:43.668Z,23.79
2017-07-31T09:51:12.011Z,23.89
2017-07-31T09:53:40.371Z,24.03
2017-07-31T09:56:08.695Z,24.13
2017-07-31T09:58:38.098Z,24.18
2017-07-31T10:01:06.423Z,24.27
2017-07-31T10:03:34.758Z,24.32
2017-07-31T10:06:03.876Z,24.37
2017-07-31T10:08:32.196Z,24.43
2017-07-31T10:11:00.551Z,24.50
2017-07-31T10:13:28.895Z,24.52
2017-07-31T10:15:57.289Z,24.56
2017-07-31T10:18:25.608Z,24.60
2017-07-31T10:20:53.963Z,24.57
2017-07-31T10:23:22.316Z,24.55
2017-07-31T10:25:50.692Z,24.59
2017-07-31T10:28:19.007Z,24.62
2017-07-31T10:30:47.658Z,24.64
2017-07-31T10:33:15.985Z,24.65
2017-07-31T10:35:44.314Z,24.61
2017-07-31T10:38:13.435Z,24.64
2017-07-31T10:40:41.766Z,24.67
2017-07-31T10:43:10.104Z,24.71
2017-07-31T10:45:38.448Z,24.79
2017-07-31T10:48:07.567Z,24.93
2017-07-31T10:50:35.921Z,25.03
2017-07-31T10:53:04.272Z,25.19
2017-07-31T10:55:32.631Z,25.25
2017-07-31T10:58:00.987Z,25.33
2017-07-31T11:00:29.337Z,25.35
2017-07-31T11:02:58.442Z,25.42
2017-07-31T11:05:27.134Z,25.47
2017-07-31T11:07:55.468Z,25.42
2017-07-31T11:10:23.800Z,25.39
2017-07-31T11:12:52.152Z,25.37
2017-07-31T11:15:21.252Z,25.44
2017-07-31T11:17:49.614Z,25.53
2017-07-31T11:20:17.957Z,25.59
2017-07-31T11:22:46.704Z,25.57
2017-07-31T11:25:15.133Z,25.62
2017-07-31T11:27:43.475Z,25.60
2017-07-31T11:30:11.824Z,25.63
2017-07-31T11:32:40.185Z,25.63
2017-07-31T11:35:08.541Z,25.69
2017-07-31T11:37:36.885Z,25.63
2017-07-31T11:40:05.992Z,25.61
2017-07-31T11:42:34.326Z,25.64
2017-07-31T11:45:02.757Z,25.72
2017-07-31T11:47:31.111Z,25.76
2017-07-31T11:49:59.444Z,25.78
2017-07-31T11:52:27.824Z,25.81
2017-07-31T11:54:56.160Z,25.82
2017-07-31T11:57:25.558Z,25.89
2017-07-31T11:59:54.805Z,25.96
2017-07-31T12:02:23.124Z,25.93
2017-07-31T12:04:51.460Z,26.04
2017-07-31T12:07:19.807Z,26.15
2017-07-31T12:09:48.156Z,26.12
2017-07-31T12:12:16.486Z,26.12
2017-07-31T12:14:44.911Z,26.20
2017-07-31T12:17:13.257Z,26.30
2017-07-31T12:19:41.904Z,26.36
2017-07-31T12:22:10.230Z,26.39
2017-07-31T12:24:38.579Z,26.52
2017-07-31T12:27:06.947Z,26.43
2017-07-31T12:29:36.050Z,26.46
2017-07-31T12:32:04.414Z,26.53
2017-07-31T12:34:32.816Z,26.51
2017-07-31T12:37:01.174Z,26.60
2017-07-31T12:39:29.513Z,26.52
2017-07-31T12:41:57.883Z,26.44
2017-07-31T12:44:26.218Z,26.55
2017-07-31T12:46:55.343Z,26.49
2017-07-31T12:49:23.679Z,26.49
2017-07-31T12:51:52.012Z,26.64
2017-07-31T12:54:20.345Z,26.71
2017-07-31T12:56:49.443Z,26.75
2017-07-31T12:59:17.814Z,26.71
2017-07-31T13:01:46.154Z,26.72
2017-07-31T13:04:14.901Z,26.73
2017-07-31T13:06:43.236Z,26.70
2017-07-31T13:09:11.567Z,26.62
2017-07-31T13:11:39.917Z,26.67
2017-07-31T13:14:09.085Z,26.70
2017-07-31T13:16:37.443Z,26.77
2017-07-31T13:19:05.786Z,26.89
2017-07-31T13:21:34.471Z,26.89
2017-07-31T13:24:02.795Z,26.94
2017-07-31T13:26:31.138Z,26.99
2017-07-31T13:29:00.251Z,27.03
2017-07-31T13:31:28.566Z,27.12
2017-07-31T13:33:56.912Z,27.09
2017-07-31T13:36:25.269Z,27.19
2017-07-31T13:38:54.421Z,27.17
2017-07-31T13:41:22.747Z,27.22
2017-07-31T13:43:51.117Z,27.48
2017-07-31T13:46:19.570Z,27.45
2017-07-31T13:48:47.905Z,27.41
2017-07-31T13:51:16.264Z,27.23
2017-07-31T13:53:44.591Z,27.18
2017-07-31T13:56:12.928Z,27.22
2017-07-31T13:58:42.053Z,27.21
2017-07-31T14:01:10.421Z,27.14
2017-07-31T14:03:38.750Z,27.04
2017-07-31T14:06:07.405Z,27.01
2017-07-31T14:08:35.747Z,27.02
2017-07-31T14:11:04.847Z,26.97
2017-07-31T14:13:33.207Z,27.13
2017-07-31T14:16:01.554Z,27.41
2017-07-31T14:18:29.903Z,27.64
2017-07-31T14:20:58.219Z,27.47
2017-07-31T14:23:26.963Z,27.47
2017-07-31T14:25:55.297Z,27.40
2017-07-31T14:28:24.031Z,27.60
2017-07-31T14:30:52.381Z,27.81
2017-07-31T14:33:20.730Z,27.91
2017-07-31T14:35:49.787Z,27.75
2017-07-31T14:38:18.121Z,27.62
2017-07-31T14:40:46.961Z,27.62
2017-07-31T14:43:15.283Z,27.47
2017-07-31T14:45:43.616Z,27.30
2017-07-31T14:48:11.959Z,27.40
2017-07-31T14:50:40.286Z,27.52
2017-07-31T14:53:09.077Z,27.44
2017-07-31T14:55:37.391Z,27.52
2017-07-31T14:58:06.467Z,27.58
2017-07-31T15:00:34.803Z,27.56
2017-07-31T15:03:04.209Z,27.48
2017-07-31T15:05:32.570Z,27.28
2017-07-31T15:08:00.985Z,27.18
2017-07-31T15:10:29.328Z,27.16
2017-07-31T15:12:57.662Z,27.34
2017-07-31T15:15:26.556Z,27.64
2017-07-31T15:17:54.877Z,28.05
2017-07-31T15:20:23.220Z,28.43
2017-07-31T15:22:51.576Z,28.82
2017-07-31T15:25:19.923Z,29.15
2017-07-31T15:27:48.295Z,29.48
2017-07-31T15:30:16.630Z,29.67
2017-07-31T15:32:45.378Z,29.79
2017-07-31T15:35:13.701Z,29.99
2017-07-31T15:37:42.032Z,30.09
2017-07-31T15:40:11.144Z,30.15
2017-07-31T15:42:39.482Z,30.38
2017-07-31T15:45:07.829Z,30.24
2017-07-31T15:47:36.195Z,30.16
2017-07-31T15:50:04.548Z,30.17
2017-07-31T15:52:33.644Z,30.15
2017-07-31T15:55:01.991Z,30.13
2017-07-31T15:57:30.315Z,29.76
2017-07-31T15:59:58.727Z,29.69
2017-07-31T16:02:27.073Z,29.45
2017-07-31T16:04:56.171Z,29.08
2017-07-31T16:07:24.548Z,28.86
2017-07-31T16:09:52.875Z,28.68
2017-07-31T16:12:21.241Z,28.51
2017-07-31T16:14:49.584Z,28.42
2017-07-31T16:17:17.918Z,28.20
2017-07-31T16:19:46.263Z,28.22
2017-07-31T16:22:14.713Z,28.15
2017-07-31T16:24:44.137Z,27.97
2017-07-31T16:27:12.465Z,27.78
2017-07-31T16:29:41.402Z,27.63
2017-07-31T16:32:10.518Z,27.69
2017-07-31T16:34:38.878Z,27.56
2017-07-31T16:37:25.380Z,27.60
2017-07-31T16:39:53.695Z,27.43
2017-07-31T16:42:49.475Z,27.39
2017-07-31T16:45:30.312Z,27.40
2017-07-31T16:51:04.053Z,27.28
2017-07-31T16:53:32.409Z,27.21
2017-07-31T16:56:03.628Z,27.23
2017-07-31T16:58:31.951Z,27.28
2017-07-31T17:01:00.313Z,27.36
2017-07-31T17:03:29.624Z,27.31
2017-07-31T17:05:57.990Z,27.35
2017-07-31T17:08:26.365Z,27.20
2017-07-31T17:10:54.680Z,27.22
2017-07-31T17:13:23.038Z,27.29
2017-07-31T17:15:51.360Z,27.23
2017-07-31T17:18:19.729Z,26.98
2017-07-31T17:20:48.115Z,26.95
2017-07-31T17:23:16.453Z,26.92
2017-07-31T17:25:44.818Z,26.93
2017-07-31T17:28:13.152Z,26.83
2017-07-31T17:30:41.851Z,26.80
2017-07-31T17:33:10.186Z,26.73
2017-07-31T17:35:38.514Z,26.72
2017-07-31T17:38:08.127Z,26.63
2017-07-31T17:40:36.479Z,26.50
2017-07-31T17:43:05.298Z,26.52
2017-07-31T17:45:33.648Z,26.46
2017-07-31T17:48:01.975Z,26.31
2017-07-31T17:50:30.335Z,26.19
2017-07-31T17:52:58.702Z,26.10
2017-07-31T17:55:27.817Z,25.97
2017-07-31T17:57:56.188Z,25.89
2017-07-31T18:05:18.135Z,25.76
2017-07-31T18:07:47.255Z,25.83
2017-07-31T18:10:15.684Z,25.82
2017-07-31T18:12:44.030Z,25.92
2017-07-31T18:15:12.394Z,25.95
2017-07-31T18:17:40.756Z,25.93
2017-07-31T18:20:09.098Z,25.56
2017-07-31T18:22:37.468Z,25.41
2017-07-31T18:25:05.811Z,25.44
2017-07-31T18:27:34.891Z,25.43
2017-07-31T18:30:03.246Z,25.35
2017-07-31T18:32:31.621Z,25.33
2017-07-31T18:34:59.989Z,25.11
2017-07-31T18:37:28.355Z,24.84
2017-07-31T18:39:56.751Z,24.85
2017-07-31T18:42:25.086Z,24.71
2017-07-31T18:44:53.433Z,24.85
2017-07-31T18:47:21.758Z,24.74
2017-07-31T18:49:50.113Z,24.73
2017-07-31T18:52:18.444Z,24.75
2017-07-31T18:54:46.817Z,24.74
2017-07-31T18:57:15.155Z,24.50
2017-07-31T18:59:43.788Z,24.35
2017-07-31T19:02:12.143Z,24.41
2017-07-31T19:04:40.483Z,24.43
2017-07-31T19:07:08.818Z,24.24
2017-07-31T19:09:37.141Z,24.32
2017-07-31T19:12:05.479Z,24.21
2017-07-31T19:14:33.847Z,24.17
2017-07-31T19:17:02.207Z,24.16
2017-07-31T19:19:30.549Z,24.19
2017-07-31T19:21:58.954Z,23.97
2017-07-31T19:24:27.408Z,24.01
2017-07-31T19:26:55.749Z,24.03
2017-07-31T19:29:24.100Z,23.99
